createdAt,value
2018-10-04T00:00:29.663Z,81.33
2018-10-04T00:01:29.601Z,81.24
2018-10-04T00:02:29.604Z,81.71
2018-10-04T00:03:29.566Z,81.18
2018-10-04T00:04:29.540Z,81.18
2018-10-04T00:05:29.519Z,82.28
2018-10-04T00:06:29.515Z,82.32
2018-10-04T00:07:29.524Z,81.18
2018-10-04T00:08:29.484Z,81.37
2018-10-04T00:09:29.484Z,81.66
2018-10-04T00:10:29.451Z,81.37
2018-10-04T00:11:29.436Z,81.18
2018-10-04T00:12:29.410Z,81.28
2018-10-04T00:13:29.428Z,81.37
2018-10-04T00:14:29.385Z,81.18
2018-10-04T00:15:29.411Z,81.47
2018-10-04T00:16:29.343Z,81.37
2018-10-04T00:17:29.322Z,81.37
2018-10-04T00:18:29.310Z,81.47
2018-10-04T00:19:29.314Z,81.37
2018-10-04T00:20:29.324Z,81.47
2018-10-04T00:21:29.263Z,81.37
2018-10-04T00:22:29.250Z,80.99
2018-10-04T00:23:29.247Z,80.99
2018-10-04T00:24:29.301Z,81.56
2018-10-04T00:25:29.202Z,81.47
2018-10-04T00:26:29.179Z,81.52
2018-10-04T00:27:29.169Z,81.95
2018-10-04T00:28:29.162Z,82.38
2018-10-04T00:29:29.146Z,82.19
2018-10-04T00:30:29.192Z,81.90
2018-10-04T00:31:29.106Z,82.76
2018-10-04T00:32:29.085Z,82.19
2018-10-04T00:33:29.076Z,83.23
2018-10-04T00:34:29.056Z,83.23
2018-10-04T00:35:29.051Z,82.86
2018-10-04T00:36:29.049Z,82.38
2018-10-04T00:37:29.007Z,82.57
2018-10-04T00:38:29.008Z,82.76
2018-10-04T00:39:28.970Z,82.95
2018-10-04T00:40:28.965Z,82.86
2018-10-04T00:41:28.976Z,82.86
2018-10-04T00:42:28.953Z,83.14
2018-10-04T00:43:28.905Z,82.95
2018-10-04T00:44:28.893Z,82.86
2018-10-04T00:45:28.880Z,82.76
2018-10-04T00:46:28.868Z,83.14
2018-10-04T00:47:28.873Z,83.14
2018-10-04T00:48:28.837Z,83.81
2018-10-04T00:49:28.808Z,83.52
2018-10-04T00:50:28.796Z,83.62
2018-10-04T00:51:28.826Z,83.71
2018-10-04T00:52:28.814Z,83.33
2018-10-04T00:53:28.749Z,83.71
2018-10-04T00:54:28.723Z,83.52
2018-10-04T00:55:28.720Z,84.38
2018-10-04T00:56:28.708Z,84.38
2018-10-04T00:57:28.677Z,84.56
2018-10-04T00:58:28.668Z,84.47
2018-10-04T00:59:28.658Z,84.09
2018-10-04T01:00:28.639Z,84.09
2018-10-04T01:01:28.609Z,84.28
2018-10-04T01:02:28.601Z,84.47
2018-10-04T01:03:28.584Z,84.38
2018-10-04T01:04:28.561Z,84.47
2018-10-04T01:05:28.559Z,84.47
2018-10-04T01:06:28.534Z,84.19
2018-10-04T01:07:28.526Z,84.61
2018-10-04T01:08:28.564Z,84.13
2018-10-04T01:09:28.494Z,84.56
2018-10-04T01:10:28.470Z,84.99
2018-10-04T01:11:28.489Z,85.18
2018-10-04T01:12:28.429Z,84.52
2018-10-04T01:13:28.424Z,84.04
2018-10-04T01:14:28.435Z,84.70
2018-10-04T01:15:28.391Z,84.61
2018-10-04T01:16:28.364Z,84.70
2018-10-04T01:17:28.363Z,84.61
2018-10-04T01:18:28.346Z,84.61
2018-10-04T01:19:28.351Z,84.99
2018-10-04T01:20:28.506Z,84.99
2018-10-04T01:21:28.285Z,84.61
2018-10-04T01:22:28.281Z,85.08
2018-10-04T01:23:28.318Z,84.13
2018-10-04T01:24:28.237Z,84.80
2018-10-04T01:25:28.213Z,84.89
2018-10-04T01:26:28.208Z,84.61
2018-10-04T01:27:28.205Z,84.33
2018-10-04T01:28:28.170Z,84.61
2018-10-04T01:29:28.192Z,84.42
2018-10-04T01:30:28.145Z,84.04
2018-10-04T01:31:28.201Z,84.70
2018-10-04T01:32:28.110Z,84.70
2018-10-04T01:33:28.119Z,84.52
2018-10-04T01:34:28.114Z,84.13
2018-10-04T01:35:28.069Z,84.61
2018-10-04T01:36:28.053Z,84.33
2018-10-04T01:37:28.026Z,84.33
2018-10-04T01:38:28.039Z,85.18
2018-10-04T01:39:28.024Z,84.04
2018-10-04T01:40:28.147Z,84.61
2018-10-04T01:41:27.979Z,84.33
2018-10-04T01:42:27.948Z,84.52
2018-10-04T01:43:27.940Z,84.42
2018-10-04T01:44:27.956Z,84.42
2018-10-04T01:45:27.896Z,84.13
2018-10-04T01:46:27.909Z,84.23
2018-10-04T01:47:27.880Z,84.33
2018-10-04T01:48:27.899Z,84.61
2018-10-04T01:49:27.833Z,84.13
2018-10-04T01:50:27.827Z,84.33
2018-10-04T01:51:27.866Z,84.42
2018-10-04T01:52:27.797Z,83.94
2018-10-04T01:53:27.775Z,83.94
2018-10-04T01:54:27.769Z,83.94
2018-10-04T01:55:27.741Z,84.04
2018-10-04T01:56:27.723Z,84.04
2018-10-04T01:57:27.712Z,84.27
2018-10-04T01:58:27.770Z,84.56
2018-10-04T01:59:27.686Z,83.89
2018-10-04T02:00:27.661Z,83.98
2018-10-04T02:01:27.639Z,84.27
2018-10-04T02:02:27.622Z,84.13
2018-10-04T02:03:27.611Z,83.98
2018-10-04T02:04:27.638Z,83.98
2018-10-04T02:05:27.579Z,83.98
2018-10-04T02:06:27.574Z,84.33
2018-10-04T02:07:27.553Z,83.37
2018-10-04T02:08:27.545Z,84.56
2018-10-04T02:09:27.559Z,84.08
2018-10-04T02:10:27.539Z,84.17
2018-10-04T02:11:27.482Z,83.80
2018-10-04T02:12:27.473Z,83.32
2018-10-04T02:13:27.492Z,84.56
2018-10-04T02:14:27.447Z,84.17
2018-10-04T02:15:27.425Z,83.80
2018-10-04T02:16:27.417Z,83.80
2018-10-04T02:17:27.397Z,84.08
2018-10-04T02:18:27.371Z,84.08
2018-10-04T02:19:27.371Z,84.08
2018-10-04T02:20:27.388Z,83.98
2018-10-04T02:21:27.336Z,83.80
2018-10-04T02:22:27.310Z,84.56
2018-10-04T02:23:27.293Z,84.36
2018-10-04T02:24:27.288Z,84.36
2018-10-04T02:25:27.265Z,84.27
2018-10-04T02:26:27.245Z,84.17
2018-10-04T02:27:27.239Z,84.46
2018-10-04T02:28:27.248Z,84.94
2018-10-04T02:29:27.200Z,83.98
2018-10-04T02:30:27.216Z,84.56
2018-10-04T02:31:27.185Z,83.98
2018-10-04T02:32:27.177Z,84.36
2018-10-04T02:33:27.146Z,84.36
2018-10-04T02:34:27.130Z,84.65
2018-10-04T02:35:27.136Z,84.36
2018-10-04T02:36:27.134Z,84.84
2018-10-04T02:37:27.076Z,84.65
2018-10-04T02:38:27.064Z,84.36
2018-10-04T02:39:27.040Z,84.17
2018-10-04T02:40:27.042Z,84.56
2018-10-04T02:41:27.094Z,84.65
2018-10-04T02:42:27.073Z,84.56
2018-10-04T02:43:26.997Z,84.65
2018-10-04T02:44:26.962Z,84.17
2018-10-04T02:45:26.952Z,84.36
2018-10-04T02:46:26.943Z,84.36
2018-10-04T02:47:26.940Z,84.08
2018-10-04T02:48:26.986Z,83.80
2018-10-04T02:49:26.908Z,83.98
2018-10-04T02:50:27.008Z,83.70
2018-10-04T02:51:26.856Z,84.22
2018-10-04T02:52:26.852Z,84.46
2018-10-04T02:53:26.827Z,84.03
2018-10-04T02:54:26.827Z,84.17
2018-10-04T02:55:26.799Z,83.80
2018-10-04T02:56:26.788Z,83.61
2018-10-04T02:57:26.776Z,83.61
2018-10-04T02:58:26.749Z,84.36
2018-10-04T02:59:26.750Z,84.08
2018-10-04T03:00:26.735Z,83.98
2018-10-04T03:01:26.707Z,84.22
2018-10-04T03:02:26.702Z,84.41
2018-10-04T03:03:26.667Z,84.22
2018-10-04T03:04:26.666Z,85.46
2018-10-04T03:05:26.640Z,85.32
2018-10-04T03:06:26.634Z,85.27
2018-10-04T03:07:26.604Z,85.41
2018-10-04T03:08:26.602Z,85.36
2018-10-04T03:09:26.616Z,85.13
2018-10-04T03:10:26.591Z,85.74
2018-10-04T03:11:26.541Z,85.46
2018-10-04T03:12:26.529Z,85.22
2018-10-04T03:13:26.518Z,85.55
2018-10-04T03:14:26.495Z,86.32
2018-10-04T03:15:26.520Z,86.69
2018-10-04T03:16:26.476Z,86.36
2018-10-04T03:17:26.446Z,86.32
2018-10-04T03:18:26.441Z,86.32
2018-10-04T03:19:26.431Z,86.51
2018-10-04T03:20:26.419Z,86.79
2018-10-04T03:21:26.445Z,86.65
2018-10-04T03:22:26.370Z,87.07
2018-10-04T03:23:26.377Z,86.60
2018-10-04T03:24:26.351Z,86.32
2018-10-04T03:25:26.383Z,86.41
2018-10-04T03:26:26.326Z,86.27
2018-10-04T03:27:26.300Z,85.99
2018-10-04T03:28:26.281Z,86.08
2018-10-04T03:29:26.264Z,85.64
2018-10-04T03:30:26.263Z,85.64
2018-10-04T03:31:26.299Z,85.46
2018-10-04T03:32:26.232Z,85.55
2018-10-04T03:33:26.201Z,85.55
2018-10-04T03:34:26.200Z,85.36
2018-10-04T03:35:26.178Z,85.17
2018-10-04T03:36:26.170Z,85.74
2018-10-04T03:37:26.145Z,85.74
2018-10-04T03:38:26.124Z,85.64
2018-10-04T03:39:26.125Z,86.12
2018-10-04T03:40:26.097Z,86.60
2018-10-04T03:41:26.124Z,86.51
2018-10-04T03:42:26.069Z,86.32
2018-10-04T03:43:26.053Z,86.60
2018-10-04T03:44:26.189Z,85.93
2018-10-04T03:45:26.051Z,86.12
2018-10-04T03:46:26.008Z,85.84
2018-10-04T03:47:26.044Z,85.93
2018-10-04T03:48:25.982Z,85.55
2018-10-04T03:49:25.962Z,85.74
2018-10-04T03:50:25.953Z,86.12
2018-10-04T03:51:25.924Z,85.74
2018-10-04T03:52:25.921Z,85.46
2018-10-04T03:53:25.923Z,85.27
2018-10-04T03:54:25.891Z,85.55
2018-10-04T03:55:25.860Z,85.17
2018-10-04T03:56:25.848Z,85.27
2018-10-04T03:57:25.865Z,85.08
2018-10-04T03:58:25.853Z,85.27
2018-10-04T03:59:25.810Z,85.27
2018-10-04T04:00:25.790Z,85.27
2018-10-04T04:01:25.788Z,85.27
2018-10-04T04:02:25.768Z,85.27
2018-10-04T04:03:25.799Z,84.88
2018-10-04T04:04:25.729Z,85.27
2018-10-04T04:05:25.724Z,84.69
2018-10-04T04:06:25.712Z,84.79
2018-10-04T04:07:25.685Z,84.69
2018-10-04T04:08:25.680Z,84.69
2018-10-04T04:09:25.669Z,84.69
2018-10-04T04:10:25.643Z,85.36
2018-10-04T04:11:25.639Z,84.88
2018-10-04T04:12:25.623Z,84.88
2018-10-04T04:13:25.590Z,84.79
2018-10-04T04:14:25.642Z,84.88
2018-10-04T04:15:25.564Z,84.69
2018-10-04T04:16:25.549Z,85.17
2018-10-04T04:17:25.542Z,84.88
2018-10-04T04:18:25.511Z,84.79
2018-10-04T04:19:25.505Z,84.88
2018-10-04T04:20:25.527Z,84.98
2018-10-04T04:21:25.483Z,84.31
2018-10-04T04:22:25.477Z,84.69
2018-10-04T04:23:25.448Z,84.55
2018-10-04T04:24:25.530Z,84.74
2018-10-04T04:25:25.409Z,84.88
2018-10-04T04:26:25.414Z,84.88
2018-10-04T04:27:25.387Z,84.55
2018-10-04T04:28:25.364Z,84.55
2018-10-04T04:29:25.352Z,84.74
2018-10-04T04:30:25.374Z,84.36
2018-10-04T04:31:25.320Z,84.74
2018-10-04T04:32:25.306Z,84.45
2018-10-04T04:33:25.314Z,84.83
2018-10-04T04:34:25.290Z,84.92
2018-10-04T04:35:25.320Z,84.55
2018-10-04T04:36:25.251Z,84.64
2018-10-04T04:37:25.258Z,84.07
2018-10-04T04:38:25.211Z,84.55
2018-10-04T04:39:25.194Z,84.07
2018-10-04T04:40:25.181Z,84.55
2018-10-04T04:41:25.186Z,84.45
2018-10-04T04:42:25.161Z,84.60
2018-10-04T04:43:25.138Z,84.60
2018-10-04T04:44:25.155Z,84.74
2018-10-04T04:45:25.100Z,84.45
2018-10-04T04:46:25.161Z,84.74
2018-10-04T04:47:25.117Z,84.31
2018-10-04T04:48:25.055Z,84.98
2018-10-04T04:49:25.074Z,84.64
2018-10-04T04:50:25.030Z,84.41
2018-10-04T04:51:25.027Z,84.26
2018-10-04T04:52:25.039Z,84.45
2018-10-04T04:53:25.026Z,84.55
2018-10-04T04:54:24.968Z,84.45
2018-10-04T04:55:24.953Z,84.45
2018-10-04T04:56:24.942Z,84.45
2018-10-04T04:57:24.920Z,84.64
2018-10-04T04:58:24.979Z,84.64
2018-10-04T04:59:24.897Z,84.55
2018-10-04T05:00:24.880Z,84.74
2018-10-04T05:01:24.860Z,84.55
2018-10-04T05:02:24.849Z,84.16
2018-10-04T05:03:24.845Z,84.83
2018-10-04T05:04:24.851Z,84.55
2018-10-04T05:05:24.814Z,84.26
2018-10-04T05:06:24.849Z,85.02
2018-10-04T05:07:24.775Z,85.31
2018-10-04T05:08:24.797Z,84.55
2018-10-04T05:09:24.752Z,85.02
2018-10-04T05:10:24.730Z,84.74
2018-10-04T05:11:24.709Z,85.31
2018-10-04T05:12:24.696Z,84.83
2018-10-04T05:13:24.716Z,84.45
2018-10-04T05:14:24.696Z,84.36
2018-10-04T05:15:24.655Z,84.26
2018-10-04T05:16:24.642Z,84.26
2018-10-04T05:17:24.627Z,84.16
2018-10-04T05:18:24.633Z,84.64
2018-10-04T05:19:24.607Z,84.74
2018-10-04T05:20:24.590Z,84.36
2018-10-04T05:21:24.571Z,84.36
2018-10-04T05:22:24.581Z,84.55
2018-10-04T05:23:24.533Z,84.55
2018-10-04T05:24:24.557Z,84.74
2018-10-04T05:25:24.499Z,84.83
2018-10-04T05:26:24.505Z,84.55
2018-10-04T05:27:24.528Z,84.36
2018-10-04T05:28:24.453Z,84.26
2018-10-04T05:29:24.441Z,84.07
2018-10-04T05:30:24.422Z,84.83
2018-10-04T05:31:24.415Z,84.64
2018-10-04T05:32:24.401Z,84.64
2018-10-04T05:33:24.381Z,84.64
2018-10-04T05:34:24.376Z,84.92
2018-10-04T05:35:24.367Z,84.83
2018-10-04T05:36:24.354Z,84.45
2018-10-04T05:37:24.328Z,84.45
2018-10-04T05:38:24.306Z,84.45
2018-10-04T05:39:24.316Z,84.45
2018-10-04T05:40:24.283Z,84.74
2018-10-04T05:41:24.275Z,84.83
2018-10-04T05:42:24.257Z,84.83
2018-10-04T05:43:24.248Z,85.21
2018-10-04T05:44:24.260Z,84.92
2018-10-04T05:45:24.318Z,85.31
2018-10-04T05:46:24.189Z,85.31
2018-10-04T05:47:24.173Z,85.50
2018-10-04T05:48:24.199Z,85.31
2018-10-04T05:49:24.188Z,85.78
2018-10-04T05:50:24.251Z,85.69
2018-10-04T05:51:24.124Z,86.07
2018-10-04T05:52:24.108Z,86.55
2018-10-04T05:53:24.113Z,86.74
2018-10-04T05:54:24.126Z,87.02
2018-10-04T05:55:24.075Z,87.02
2018-10-04T05:56:24.043Z,86.83
2018-10-04T05:57:24.037Z,86.65
2018-10-04T05:58:24.010Z,86.93
2018-10-04T05:59:24.042Z,86.45
2018-10-04T06:00:23.990Z,87.60
2018-10-04T06:01:23.965Z,87.21
2018-10-04T06:02:23.959Z,87.40
2018-10-04T06:03:23.930Z,87.98
2018-10-04T06:04:23.947Z,87.60
2018-10-04T06:05:23.999Z,87.88
2018-10-04T06:06:23.927Z,88.26
2018-10-04T06:07:23.889Z,88.26
2018-10-04T06:08:23.864Z,88.93
2018-10-04T06:09:23.839Z,88.79
2018-10-04T06:10:23.837Z,89.17
2018-10-04T06:11:23.881Z,88.70
2018-10-04T06:12:23.798Z,88.89
2018-10-04T06:13:23.793Z,89.07
2018-10-04T06:14:23.784Z,88.55
2018-10-04T06:15:23.803Z,88.84
2018-10-04T06:16:23.748Z,88.55
2018-10-04T06:17:23.753Z,88.98
2018-10-04T06:18:23.717Z,89.46
2018-10-04T06:19:23.722Z,90.12
2018-10-04T06:20:23.678Z,89.65
2018-10-04T06:21:23.676Z,89.26
2018-10-04T06:22:23.647Z,89.84
2018-10-04T06:23:23.640Z,90.03
2018-10-04T06:24:23.615Z,90.12
2018-10-04T06:25:23.616Z,89.84
2018-10-04T06:26:23.612Z,89.94
2018-10-04T06:27:23.568Z,90.22
2018-10-04T06:28:23.553Z,90.12
2018-10-04T06:29:23.576Z,90.31
2018-10-04T06:30:23.535Z,90.12
2018-10-04T06:31:23.509Z,89.84
2018-10-04T06:32:23.495Z,90.12
2018-10-04T06:33:23.520Z,90.41
2018-10-04T06:34:23.478Z,90.12
2018-10-04T06:35:23.530Z,90.12
2018-10-04T06:36:23.449Z,90.03
2018-10-04T06:37:23.416Z,90.03
2018-10-04T06:38:23.443Z,90.03
2018-10-04T06:39:23.393Z,90.12
2018-10-04T06:40:23.376Z,90.12
2018-10-04T06:41:23.405Z,90.12
2018-10-04T06:42:23.356Z,90.03
2018-10-04T06:43:23.332Z,89.79
2018-10-04T06:44:23.312Z,90.26
2018-10-04T06:45:23.379Z,90.22
2018-10-04T06:46:23.284Z,90.36
2018-10-04T06:47:24.223Z,90.64
2018-10-04T06:48:23.249Z,90.31
2018-10-04T06:49:23.233Z,90.79
2018-10-04T06:50:23.221Z,90.22
2018-10-04T06:51:23.247Z,90.74
2018-10-04T06:52:23.198Z,90.84
2018-10-04T06:53:23.182Z,90.70
2018-10-04T06:54:23.165Z,90.79
2018-10-04T06:55:23.187Z,90.74
2018-10-04T06:56:23.131Z,90.89
2018-10-04T06:57:23.110Z,90.84
2018-10-04T06:58:23.113Z,90.36
2018-10-04T06:59:23.098Z,90.64
2018-10-04T07:00:23.072Z,90.45
2018-10-04T07:01:23.051Z,90.74
2018-10-04T07:02:23.040Z,90.64
2018-10-04T07:03:23.035Z,90.64
2018-10-04T07:04:23.019Z,90.93
2018-10-04T07:05:22.998Z,90.36
2018-10-04T07:06:22.981Z,90.36
2018-10-04T07:07:22.969Z,90.36
2018-10-04T07:08:22.957Z,90.74
2018-10-04T07:09:22.934Z,90.17
2018-10-04T07:10:22.930Z,89.89
2018-10-04T07:11:22.903Z,90.84
2018-10-04T07:12:22.899Z,90.08
2018-10-04T07:13:22.869Z,90.84
2018-10-04T07:14:22.892Z,90.74
2018-10-04T07:15:22.858Z,90.64
2018-10-04T07:16:22.866Z,90.26
2018-10-04T07:17:22.822Z,90.45
2018-10-04T07:18:22.798Z,90.17
2018-10-04T07:19:22.782Z,90.64
2018-10-04T07:20:22.955Z,90.64
2018-10-04T07:21:22.768Z,90.74
2018-10-04T07:22:22.751Z,90.64
2018-10-04T07:23:22.732Z,90.64
2018-10-04T07:24:22.719Z,90.84
2018-10-04T07:25:22.709Z,90.84
2018-10-04T07:26:22.720Z,90.64
2018-10-04T07:27:22.662Z,90.45
2018-10-04T07:28:22.660Z,90.64
2018-10-04T07:29:22.632Z,90.64
2018-10-04T07:30:22.626Z,90.64
2018-10-04T07:31:22.623Z,90.45
2018-10-04T07:32:22.597Z,90.45
2018-10-04T07:33:22.585Z,90.64
2018-10-04T07:34:22.570Z,90.64
2018-10-04T07:35:22.550Z,90.84
2018-10-04T07:36:22.526Z,90.45
2018-10-04T07:37:22.611Z,90.74
2018-10-04T07:38:22.498Z,90.55
2018-10-04T07:39:22.504Z,90.84
2018-10-04T07:40:22.476Z,91.50
2018-10-04T07:41:22.462Z,90.93
2018-10-04T07:42:22.478Z,91.22
2018-10-04T07:43:22.441Z,91.79
2018-10-04T07:44:22.423Z,91.41
2018-10-04T07:45:22.440Z,91.79
2018-10-04T07:46:22.431Z,91.79
2018-10-04T07:47:22.380Z,91.69
2018-10-04T07:48:22.357Z,91.69
2018-10-04T07:49:22.335Z,91.50
2018-10-04T07:50:22.391Z,91.88
2018-10-04T07:51:22.352Z,91.69
2018-10-04T07:52:22.304Z,91.31
2018-10-04T07:53:22.287Z,92.36
2018-10-04T07:54:22.277Z,91.88
2018-10-04T07:55:22.261Z,92.27
2018-10-04T07:56:22.273Z,92.36
2018-10-04T07:57:22.218Z,92.08
2018-10-04T07:58:22.214Z,91.79
2018-10-04T07:59:22.186Z,92.17
2018-10-04T08:00:22.281Z,92.74
2018-10-04T08:01:22.166Z,92.84
2018-10-04T08:02:22.154Z,92.36
2018-10-04T08:03:22.166Z,92.93
2018-10-04T08:04:22.115Z,92.84
2018-10-04T08:05:22.096Z,92.93
2018-10-04T08:06:22.375Z,92.55
2018-10-04T08:07:22.065Z,92.36
2018-10-04T08:08:22.054Z,92.74
2018-10-04T08:09:22.044Z,92.55
2018-10-04T08:10:22.032Z,92.74
2018-10-04T08:11:22.032Z,92.84
2018-10-04T08:12:22.017Z,92.93
2018-10-04T08:13:21.975Z,93.22
2018-10-04T08:14:21.965Z,92.84
2018-10-04T08:15:22.011Z,92.36
2018-10-04T08:16:21.946Z,92.65
2018-10-04T08:17:21.968Z,92.84
2018-10-04T08:18:21.938Z,93.27
2018-10-04T08:19:21.900Z,93.08
2018-10-04T08:20:21.886Z,93.36
2018-10-04T08:21:21.871Z,93.55
2018-10-04T08:22:21.865Z,92.69
2018-10-04T08:23:21.867Z,93.03
2018-10-04T08:24:21.824Z,93.27
2018-10-04T08:25:21.813Z,93.55
2018-10-04T08:26:21.791Z,93.36
2018-10-04T08:27:22.034Z,93.27
2018-10-04T08:28:21.812Z,93.46
2018-10-04T08:29:21.823Z,93.27
2018-10-04T08:30:21.865Z,92.98
2018-10-04T08:31:21.707Z,93.17
2018-10-04T08:32:21.703Z,93.27
2018-10-04T08:33:21.808Z,93.17
2018-10-04T08:34:21.679Z,93.17
2018-10-04T08:35:21.710Z,93.36
2018-10-04T08:36:21.646Z,92.79
2018-10-04T08:37:21.630Z,93.17
2018-10-04T08:38:21.621Z,93.17
2018-10-04T08:39:21.603Z,93.17
2018-10-04T08:40:21.633Z,93.46
2018-10-04T08:41:21.578Z,93.55
2018-10-04T08:42:21.580Z,94.12
2018-10-04T08:43:21.544Z,93.65
2018-10-04T08:44:21.528Z,93.36
2018-10-04T08:45:21.519Z,93.17
2018-10-04T08:46:21.517Z,93.46
2018-10-04T08:47:21.486Z,93.84
2018-10-04T08:48:21.505Z,93.27
2018-10-04T08:49:21.452Z,93.36
2018-10-04T08:50:21.438Z,93.84
2018-10-04T08:51:21.467Z,93.74
2018-10-04T08:52:21.419Z,93.74
2018-10-04T08:53:21.403Z,93.17
2018-10-04T08:54:21.386Z,92.98
2018-10-04T08:55:21.362Z,93.36
2018-10-04T08:56:21.409Z,92.88
2018-10-04T08:57:21.331Z,92.98
2018-10-04T08:58:21.316Z,93.36
2018-10-04T08:59:21.371Z,93.74
2018-10-04T09:00:21.283Z,93.93
2018-10-04T09:01:21.302Z,94.12
2018-10-04T09:02:21.263Z,93.65
2018-10-04T09:03:21.242Z,93.55
2018-10-04T09:04:21.234Z,94.12
2018-10-04T09:05:21.225Z,93.84
2018-10-04T09:06:21.213Z,93.84
2018-10-04T09:07:21.235Z,94.03
2018-10-04T09:08:21.180Z,93.74
2018-10-04T09:09:21.161Z,93.74
2018-10-04T09:10:21.161Z,93.84
2018-10-04T09:11:21.146Z,93.93
2018-10-04T09:12:21.117Z,94.32
2018-10-04T09:13:21.105Z,94.41
2018-10-04T09:14:21.101Z,94.79
2018-10-04T09:15:21.070Z,94.79
2018-10-04T09:16:21.089Z,94.32
2018-10-04T09:17:21.100Z,94.32
2018-10-04T09:18:21.053Z,94.60
2018-10-04T09:19:21.247Z,94.60
2018-10-04T09:20:23.186Z,94.89
2018-10-04T09:21:20.991Z,94.51
2018-10-04T09:22:20.967Z,94.70
2018-10-04T09:23:20.966Z,95.27
2018-10-04T09:24:20.939Z,94.89
2018-10-04T09:25:20.923Z,95.08
2018-10-04T09:26:20.979Z,95.17
2018-10-04T09:27:20.969Z,95.17
2018-10-04T09:28:20.901Z,94.51
2018-10-04T09:29:20.864Z,94.70
2018-10-04T09:30:20.867Z,94.70
2018-10-04T09:31:21.075Z,94.89
2018-10-04T09:32:21.115Z,94.51
2018-10-04T09:33:21.088Z,94.41
2018-10-04T09:34:20.844Z,94.98
2018-10-04T09:35:21.003Z,94.51
2018-10-04T09:36:20.768Z,94.51
2018-10-04T09:37:20.757Z,93.74
2018-10-04T09:38:20.765Z,94.12
2018-10-04T09:39:20.737Z,93.93
2018-10-04T09:40:20.712Z,93.88
2018-10-04T09:41:20.768Z,93.60
2018-10-04T09:42:20.692Z,93.41
2018-10-04T09:43:20.681Z,93.60
2018-10-04T09:44:20.678Z,93.41
2018-10-04T09:45:20.664Z,92.93
2018-10-04T09:46:20.724Z,92.93
2018-10-04T09:47:20.608Z,93.31
2018-10-04T09:48:20.663Z,93.22
2018-10-04T09:49:20.594Z,92.83
2018-10-04T09:50:20.596Z,92.36
2018-10-04T09:51:20.553Z,92.46
2018-10-04T09:52:20.533Z,93.02
2018-10-04T09:53:20.596Z,92.93
2018-10-04T09:54:20.549Z,92.74
2018-10-04T09:55:20.499Z,92.74
2018-10-04T09:56:20.500Z,92.83
2018-10-04T09:57:20.488Z,92.07
2018-10-04T09:58:20.462Z,92.26
2018-10-04T09:59:20.448Z,91.88
2018-10-04T10:00:20.429Z,92.26
2018-10-04T10:01:20.491Z,91.98
2018-10-04T10:02:20.667Z,91.93
2018-10-04T10:03:20.401Z,91.74
2018-10-04T10:04:20.371Z,92.02
2018-10-04T10:05:20.386Z,91.93
2018-10-04T10:06:20.804Z,91.45
2018-10-04T10:07:20.341Z,91.16
2018-10-04T10:08:20.360Z,90.97
2018-10-04T10:09:20.318Z,90.40
2018-10-04T10:10:20.303Z,90.78
2018-10-04T10:11:20.282Z,91.16
2018-10-04T10:12:20.265Z,91.93
2018-10-04T10:13:20.259Z,91.93
2018-10-04T10:14:20.234Z,90.78
2018-10-04T10:15:20.223Z,90.88
2018-10-04T10:16:20.211Z,90.97
2018-10-04T10:17:20.633Z,91.26
2018-10-04T10:18:20.179Z,91.07
2018-10-04T10:19:20.167Z,90.97
2018-10-04T10:20:20.164Z,91.16
2018-10-04T10:21:20.180Z,90.97
2018-10-04T10:22:20.154Z,90.40
2018-10-04T10:23:20.187Z,90.78
2018-10-04T10:24:20.097Z,90.50
2018-10-04T10:25:20.089Z,90.21
2018-10-04T10:26:20.070Z,90.31
2018-10-04T10:27:20.707Z,90.06
2018-10-04T10:28:20.069Z,90.06
2018-10-04T10:29:20.034Z,90.06
2018-10-04T10:30:20.068Z,90.25
2018-10-04T10:31:20.151Z,90.06
2018-10-04T10:32:20.023Z,90.06
2018-10-04T10:33:20.061Z,89.68
2018-10-04T10:34:19.985Z,90.06
2018-10-04T10:35:19.965Z,89.11
2018-10-04T10:36:19.949Z,89.59
2018-10-04T10:37:19.925Z,89.68
2018-10-04T10:38:19.922Z,90.25
2018-10-04T10:39:19.904Z,89.49
2018-10-04T10:40:20.051Z,89.68
2018-10-04T10:41:19.877Z,89.68
2018-10-04T10:42:19.875Z,89.78
2018-10-04T10:43:19.857Z,89.78
2018-10-04T10:44:19.855Z,89.01
2018-10-04T10:45:19.834Z,89.30
2018-10-04T10:46:19.864Z,89.25
2018-10-04T10:47:19.811Z,89.01
2018-10-04T10:48:19.793Z,89.15
2018-10-04T10:49:19.787Z,88.96
2018-10-04T10:50:19.797Z,88.82
2018-10-04T10:51:19.750Z,88.54
2018-10-04T10:52:19.735Z,88.92
2018-10-04T10:53:19.839Z,89.06
2018-10-04T10:54:19.773Z,89.06
2018-10-04T10:55:19.699Z,89.15
2018-10-04T10:56:19.694Z,88.39
2018-10-04T10:57:19.673Z,88.63
2018-10-04T10:58:19.666Z,88.58
2018-10-04T10:59:19.644Z,88.68
2018-10-04T11:00:19.663Z,88.58
2018-10-04T11:01:19.630Z,88.34
2018-10-04T11:02:19.615Z,88.39
2018-10-04T11:03:19.614Z,88.77
2018-10-04T11:04:19.583Z,88.39
2018-10-04T11:05:19.597Z,88.96
2018-10-04T11:06:19.556Z,88.68
2018-10-04T11:07:19.553Z,88.39
2018-10-04T11:08:19.595Z,88.96
2018-10-04T11:09:19.518Z,88.39
2018-10-04T11:10:19.552Z,88.58
2018-10-04T11:11:19.525Z,88.39
2018-10-04T11:12:19.483Z,88.39
2018-10-04T11:13:19.475Z,88.77
2018-10-04T11:14:19.468Z,88.77
2018-10-04T11:15:19.644Z,88.87
2018-10-04T11:16:19.431Z,88.29
2018-10-04T11:17:19.424Z,88.01
2018-10-04T11:18:19.414Z,88.68
2018-10-04T11:19:19.406Z,88.39
2018-10-04T11:20:19.379Z,88.48
2018-10-04T11:21:19.399Z,88.10
2018-10-04T11:22:19.355Z,88.01
2018-10-04T11:23:19.342Z,88.39
2018-10-04T11:24:19.330Z,88.77
2018-10-04T11:25:19.354Z,87.72
2018-10-04T11:26:19.300Z,88.20
2018-10-04T11:27:19.292Z,88.20
2018-10-04T11:28:19.285Z,87.86
2018-10-04T11:29:19.335Z,87.86
2018-10-04T11:30:19.267Z,88.05
2018-10-04T11:31:19.317Z,88.24
2018-10-04T11:32:19.243Z,87.66
2018-10-04T11:33:19.221Z,87.29
2018-10-04T11:34:19.206Z,87.57
2018-10-04T11:35:19.191Z,87.29
2018-10-04T11:36:19.186Z,87.38
2018-10-04T11:37:19.173Z,86.52
2018-10-04T11:38:19.162Z,86.71
2018-10-04T11:39:19.257Z,87.48
2018-10-04T11:40:19.145Z,87.38
2018-10-04T11:41:19.129Z,86.71
2018-10-04T11:42:19.124Z,87.29
2018-10-04T11:43:19.100Z,87.86
2018-10-04T11:44:19.084Z,87.52
2018-10-04T11:45:19.133Z,87.43
2018-10-04T11:46:19.075Z,87.43
2018-10-04T11:47:19.059Z,87.52
2018-10-04T11:48:19.088Z,86.47
2018-10-04T11:49:19.021Z,86.28
2018-10-04T11:50:19.018Z,87.33
2018-10-04T11:51:19.024Z,87.23
2018-10-04T11:52:19.004Z,86.94
2018-10-04T11:53:18.994Z,86.37
2018-10-04T11:54:18.981Z,86.28
2018-10-04T11:55:18.960Z,86.57
2018-10-04T11:56:18.954Z,85.89
2018-10-04T11:57:18.930Z,86.76
2018-10-04T11:58:18.916Z,87.08
2018-10-04T11:59:18.951Z,86.80
2018-10-04T12:00:18.900Z,86.61
2018-10-04T12:01:18.979Z,85.61
2018-10-04T12:02:18.877Z,84.55
2018-10-04T12:03:18.867Z,84.84
2018-10-04T12:04:18.847Z,85.61
2018-10-04T12:05:18.831Z,85.61
2018-10-04T12:06:18.830Z,85.46
2018-10-04T12:07:18.821Z,85.75
2018-10-04T12:08:18.799Z,85.75
2018-10-04T12:09:18.813Z,85.94
2018-10-04T12:10:18.779Z,85.46
2018-10-04T12:11:18.773Z,85.46
2018-10-04T12:12:18.858Z,85.17
2018-10-04T12:13:18.823Z,84.79
2018-10-04T12:14:18.742Z,85.46
2018-10-04T12:15:18.731Z,85.17
2018-10-04T12:16:18.727Z,85.36
2018-10-04T12:17:18.710Z,85.27
2018-10-04T12:18:18.728Z,85.55
2018-10-04T12:19:18.683Z,84.79
2018-10-04T12:20:18.657Z,84.88
2018-10-04T12:21:18.656Z,84.92
2018-10-04T12:22:18.668Z,84.83
2018-10-04T12:23:18.626Z,84.69
2018-10-04T12:24:18.665Z,84.26
2018-10-04T12:25:18.654Z,83.73
2018-10-04T12:26:18.605Z,83.68
2018-10-04T12:27:18.590Z,83.68
2018-10-04T12:28:18.583Z,83.68
2018-10-04T12:29:18.607Z,83.68
2018-10-04T12:30:18.546Z,83.59
2018-10-04T12:31:18.565Z,83.30
2018-10-04T12:32:18.524Z,83.49
2018-10-04T12:33:18.520Z,83.97
2018-10-04T12:34:18.506Z,83.11
2018-10-04T12:35:18.522Z,83.20
2018-10-04T12:36:18.565Z,83.68
2018-10-04T12:37:18.511Z,83.49
2018-10-04T12:38:18.491Z,83.49
2018-10-04T12:39:18.498Z,83.01
2018-10-04T12:40:18.449Z,83.30
2018-10-04T12:41:18.438Z,82.73
2018-10-04T12:42:18.413Z,83.30
2018-10-04T12:43:18.414Z,83.20
2018-10-04T12:44:18.423Z,82.34
2018-10-04T12:45:18.495Z,82.24
2018-10-04T12:46:18.372Z,82.15
2018-10-04T12:47:18.364Z,82.68
2018-10-04T12:48:18.356Z,83.36
2018-10-04T12:49:18.349Z,82.82
2018-10-04T12:50:18.341Z,82.49
2018-10-04T12:51:18.327Z,82.43
2018-10-04T12:52:18.333Z,82.06